sensor_id;sensor_type;location;lat;lon;timestamp;pressure;altitude;pressure_sealevel;temperature;humidity
69187;BME280;56301;56.864;60.554;2023-04-01T00:00:48;99200.56;;;25.41;37.12
69187;BME280;56301;56.864;60.554;2023-04-01T00:03:11;99202.41;;;25.41;37.27
69187;BME280;56301;56.864;60.554;2023-04-01T00:05:33;99195.31;;;25.40;36.50
69187;BME280;56301;56.864;60.554;2023-04-01T00:07:56;99208.88;;;25.40;36.81
69187;BME280;56301;56.864;60.554;2023-04-01T00:10:19;99194.66;;;25.38;37.33
69187;BME280;56301;56.864;60.554;2023-04-01T00:12:42;99180.44;;;25.36;37.29
69187;BME280;56301;56.864;60.554;2023-04-01T00:15:06;99187.75;;;25.35;36.78
69187;BME280;56301;56.864;60.554;2023-04-01T00:17:29;99186.03;;;25.34;36.78
69187;BME280;56301;56.864;60.554;2023-04-01T00:19:51;99170.81;;;25.33;36.91
69187;BME280;56301;56.864;60.554;2023-04-01T00:22:14;99173.72;;;25.32;37.29
69187;BME280;56301;56.864;60.554;2023-04-01T00:24:37;99183.69;;;25.31;36.36
69187;BME280;56301;56.864;60.554;2023-04-01T00:27:00;99179.28;;;25.30;36.80
69187;BME280;56301;56.864;60.554;2023-04-01T00:29:22;99169.47;;;25.29;36.95
69187;BME280;56301;56.864;60.554;2023-04-01T00:31:45;99163.22;;;25.29;37.01
69187;BME280;56301;56.864;60.554;2023-04-01T00:34:07;99179.47;;;25.29;37.26
69187;BME280;56301;56.864;60.554;2023-04-01T00:36:29;99178.63;;;25.28;37.35
69187;BME280;56301;56.864;60.554;2023-04-01T00:38:52;99163.22;;;25.29;37.36
69187;BME280;56301;56.864;60.554;2023-04-01T00:41:15;99172.38;;;25.28;37.31
69187;BME280;56301;56.864;60.554;2023-04-01T00:43:38;99177.78;;;25.28;37.05
69187;BME280;56301;56.864;60.554;2023-04-01T00:46:01;99184.88;;;25.29;37.91
69187;BME280;56301;56.864;60.554;2023-04-01T00:48:25;99187.59;;;25.29;36.67
69187;BME280;56301;56.864;60.554;2023-04-01T00:50:50;99192.81;;;25.30;36.53
69187;BME280;56301;56.864;60.554;2023-04-01T00:53:14;99197.06;;;25.33;37.09
69187;BME280;56301;56.864;60.554;2023-04-01T00:55:37;99194.88;;;25.28;36.61
69187;BME280;56301;56.864;60.554;2023-04-01T00:58:02;99186.91;;;25.27;36.61
69187;BME280;56301;56.864;60.554;2023-04-01T01:00:26;99184.56;;;25.24;36.91
69187;BME280;56301;56.864;60.554;2023-04-01T01:02:49;99192.69;;;25.24;37.23
69187;BME280;56301;56.864;60.554;2023-04-01T01:05:13;99196.41;;;25.23;37.24
69187;BME280;56301;56.864;60.554;2023-04-01T01:07:42;99186.44;;;25.23;36.01
69187;BME280;56301;56.864;60.554;2023-04-01T01:10:16;99194.06;;;25.19;37.42
69187;BME280;56301;56.864;60.554;2023-04-01T01:12:40;99180.16;;;25.23;36.48
69187;BME280;56301;56.864;60.554;2023-04-01T01:28:01;99160.59;;;25.04;37.42
69187;BME280;56301;56.864;60.554;2023-04-01T01:33:06;99160.94;;;25.01;37.45
69187;BME280;56301;56.864;60.554;2023-04-01T01:35:52;99151.16;;;25.00;37.49
69187;BME280;56301;56.864;60.554;2023-04-01T01:38:18;99163.00;;;24.99;37.02
69187;BME280;56301;56.864;60.554;2023-04-01T01:40:50;99155.03;;;24.97;36.67
69187;BME280;56301;56.864;60.554;2023-04-01T01:43:14;99161.47;;;24.96;36.77
69187;BME280;56301;56.864;60.554;2023-04-01T01:45:39;99165.03;;;24.97;36.53
69187;BME280;56301;56.864;60.554;2023-04-01T01:48:03;99167.09;;;24.95;37.37
69187;BME280;56301;56.864;60.554;2023-04-01T01:50:27;99168.91;;;24.94;37.21
69187;BME280;56301;56.864;60.554;2023-04-01T01:52:50;99155.56;;;24.93;37.32
69187;BME280;56301;56.864;60.554;2023-04-01T01:55:23;99159.13;;;24.93;37.47
69187;BME280;56301;56.864;60.554;2023-04-01T01:57:46;99171.81;;;24.93;37.42
69187;BME280;56301;56.864;60.554;2023-04-01T02:00:12;99179.94;;;24.93;36.78
69187;BME280;56301;56.864;60.554;2023-04-01T02:02:35;99174.72;;;24.91;36.94
69187;BME280;56301;56.864;60.554;2023-04-01T02:04:57;99164.88;;;24.90;36.90
69187;BME280;56301;56.864;60.554;2023-04-01T02:07:22;99153.22;;;24.90;36.78
69187;BME280;56301;56.864;60.554;2023-04-01T02:09:47;99168.44;;;24.91;37.28
69187;BME280;56301;56.864;60.554;2023-04-01T02:12:11;99169.44;;;24.90;36.54
69187;BME280;56301;56.864;60.554;2023-04-01T02:14:39;99173.84;;;24.91;36.24
69187;BME280;56301;56.864;60.554;2023-04-01T02:17:05;99178.41;;;24.90;36.97
69187;BME280;56301;56.864;60.554;2023-04-01T02:19:32;99165.91;;;24.89;37.17
69187;BME280;56301;56.864;60.554;2023-04-01T02:21:57;99174.03;;;24.89;36.83
69187;BME280;56301;56.864;60.554;2023-04-01T02:24:21;99176.72;;;24.89;36.64
69187;BME280;56301;56.864;60.554;2023-04-01T02:26:45;99145.28;;;24.88;37.06
69187;BME280;56301;56.864;60.554;2023-04-01T02:29:08;99153.56;;;24.87;36.96
69187;BME280;56301;56.864;60.554;2023-04-01T02:31:34;99161.53;;;24.88;36.56
69187;BME280;56301;56.864;60.554;2023-04-01T02:33:56;99158.47;;;24.91;36.79
69187;BME280;56301;56.864;60.554;2023-04-01T02:36:19;99159.31;;;24.92;36.18
69187;BME280;56301;56.864;60.554;2023-04-01T02:38:43;99157.44;;;24.92;36.55
69187;BME280;56301;56.864;60.554;2023-04-01T02:41:06;99162.00;;;24.92;36.55
69187;BME280;56301;56.864;60.554;2023-04-01T02:43:28;99154.72;;;24.92;36.42
69187;BME280;56301;56.864;60.554;2023-04-01T02:45:52;99165.72;;;24.91;36.41
69187;BME280;56301;56.864;60.554;2023-04-01T02:48:14;99153.91;;;24.92;36.43
69187;BME280;56301;56.864;60.554;2023-04-01T02:50:37;99141.19;;;24.92;36.59
69187;BME280;56301;56.864;60.554;2023-04-01T02:52:59;99152.03;;;24.92;36.72
69187;BME280;56301;56.864;60.554;2023-04-01T02:55:22;99147.25;;;24.94;36.79
69187;BME280;56301;56.864;60.554;2023-04-01T02:57:44;99131.22;;;24.93;36.86
69187;BME280;56301;56.864;60.554;2023-04-01T03:00:07;99137.47;;;24.93;36.43
69187;BME280;56301;56.864;60.554;2023-04-01T03:02:30;99147.94;;;24.96;36.78
69187;BME280;56301;56.864;60.554;2023-04-01T03:04:52;99143.38;;;24.97;36.86
69187;BME280;56301;56.864;60.554;2023-04-01T03:07:15;99145.06;;;24.98;36.97
69187;BME280;56301;56.864;60.554;2023-04-01T03:09:37;99139.63;;;24.98;37.81
69187;BME280;56301;56.864;60.554;2023-04-01T03:12:00;99147.59;;;25.00;37.11
69187;BME280;56301;56.864;60.554;2023-04-01T03:14:23;99148.44;;;25.00;37.22
69187;BME280;56301;56.864;60.554;2023-04-01T03:16:46;99142.00;;;25.01;37.28
69187;BME280;56301;56.864;60.554;2023-04-01T03:19:08;99139.28;;;25.01;37.49
69187;BME280;56301;56.864;60.554;2023-04-01T03:21:31;99134.72;;;25.02;37.09
69187;BME280;56301;56.864;60.554;2023-04-01T03:23:53;99168.06;;;25.02;37.35
69187;BME280;56301;56.864;60.554;2023-04-01T03:26:17;99146.41;;;25.02;37.19
69187;BME280;56301;56.864;60.554;2023-04-01T03:28:39;99140.13;;;25.02;38.00
69187;BME280;56301;56.864;60.554;2023-04-01T03:31:02;99156.22;;;25.03;37.30
69187;BME280;56301;56.864;60.554;2023-04-01T03:33:27;99144.53;;;25.03;37.65
69187;BME280;56301;56.864;60.554;2023-04-01T03:35:50;99150.78;;;25.03;37.52
69187;BME280;56301;56.864;60.554;2023-04-01T03:38:12;99154.53;;;25.02;37.85
69187;BME280;56301;56.864;60.554;2023-04-01T03:40:35;99158.06;;;25.03;37.75
69187;BME280;56301;56.864;60.554;2023-04-01T03:42:57;99153.66;;;25.02;37.13
69187;BME280;56301;56.864;60.554;2023-04-01T03:45:20;99133.88;;;25.01;37.21
69187;BME280;56301;56.864;60.554;2023-04-01T03:47:42;99124.75;;;25.02;37.69
69187;BME280;56301;56.864;60.554;2023-04-01T03:50:06;99121.00;;;25.03;37.43
69187;BME280;56301;56.864;60.554;2023-04-01T03:52:29;99114.91;;;25.01;38.04
69187;BME280;56301;56.864;60.554;2023-04-01T03:54:52;99119.34;;;25.02;37.45
69187;BME280;56301;56.864;60.554;2023-04-01T03:57:15;99123.88;;;25.02;37.87
69187;BME280;56301;56.864;60.554;2023-04-01T03:59:37;99127.63;;;25.01;37.75
69187;BME280;56301;56.864;60.554;2023-04-01T04:02:01;99124.75;;;25.02;38.30
69187;BME280;56301;56.864;60.554;2023-04-01T04:04:24;99127.47;;;25.02;38.02
69187;BME280;56301;56.864;60.554;2023-04-01T04:06:47;99126.44;;;25.03;37.34
69187;BME280;56301;56.864;60.554;2023-04-01T04:09:09;99114.56;;;25.04;37.48
69187;BME280;56301;56.864;60.554;2023-04-01T04:11:32;99110.00;;;25.05;37.50
69187;BME280;56301;56.864;60.554;2023-04-01T04:13:54;99103.59;;;25.06;37.33
69187;BME280;56301;56.864;60.554;2023-04-01T04:16:17;99099.00;;;25.06;37.52
69187;BME280;56301;56.864;60.554;2023-04-01T04:18:44;99118.81;;;25.07;37.56
69187;BME280;56301;56.864;60.554;2023-04-01T04:21:07;99109.50;;;25.09;37.77
69187;BME280;56301;56.864;60.554;2023-04-01T04:23:29;99099.66;;;25.08;37.53
69187;BME280;56301;56.864;60.554;2023-04-01T04:26:14;99107.78;;;25.08;37.58
69187;BME280;56301;56.864;60.554;2023-04-01T04:28:35;99107.78;;;25.08;38.01
69187;BME280;56301;56.864;60.554;2023-04-01T04:30:57;99085.47;;;25.06;38.17
69187;BME280;56301;56.864;60.554;2023-04-01T04:33:20;99081.53;;;25.09;38.75
69187;BME280;56301;56.864;60.554;2023-04-01T04:35:43;99092.25;;;25.10;39.60
69187;BME280;56301;56.864;60.554;2023-04-01T04:38:06;99104.75;;;25.11;39.26
69187;BME280;56301;56.864;60.554;2023-04-01T04:40:29;99092.88;;;25.12;38.76
69187;BME280;56301;56.864;60.554;2023-04-01T04:42:51;99090.38;;;25.11;38.91
69187;BME280;56301;56.864;60.554;2023-04-01T04:45:14;99084.78;;;25.12;38.65
69187;BME280;56301;56.864;60.554;2023-04-01T04:47:43;99082.06;;;25.12;37.71
69187;BME280;56301;56.864;60.554;2023-04-01T04:50:06;99075.81;;;25.12;38.39
69187;BME280;56301;56.864;60.554;2023-04-01T04:52:29;99087.47;;;25.12;38.00
69187;BME280;56301;56.864;60.554;2023-04-01T04:54:51;99091.22;;;25.11;37.90
69187;BME280;56301;56.864;60.554;2023-04-01T04:57:14;99097.47;;;25.12;38.43
69187;BME280;56301;56.864;60.554;2023-04-01T04:59:42;99091.91;;;25.13;39.23
69187;BME280;56301;56.864;60.554;2023-04-01T05:02:28;99076.66;;;25.12;38.95
69187;BME280;56301;56.864;60.554;2023-04-01T05:04:51;99074.63;;;25.14;39.09
69187;BME280;56301;56.864;60.554;2023-04-01T05:07:13;99090.84;;;25.14;39.63
69187;BME280;56301;56.864;60.554;2023-04-01T05:09:36;99086.28;;;25.15;39.39
69187;BME280;56301;56.864;60.554;2023-04-01T05:11:59;99086.28;;;25.15;38.38
69187;BME280;56301;56.864;60.554;2023-04-01T05:14:24;99087.97;;;25.16;39.24
69187;BME280;56301;56.864;60.554;2023-04-01T05:17:03;99087.13;;;25.15;39.26
69187;BME280;56301;56.864;60.554;2023-04-01T05:19:25;99078.00;;;25.16;39.23
69187;BME280;56301;56.864;60.554;2023-04-01T05:21:48;99072.59;;;25.16;39.73
69187;BME280;56301;56.864;60.554;2023-04-01T05:24:11;99054.47;;;25.17;39.39
69187;BME280;56301;56.864;60.554;2023-04-01T05:26:34;99070.53;;;25.18;39.30
69187;BME280;56301;56.864;60.554;2023-04-01T05:28:57;99065.78;;;25.20;38.52
69187;BME280;56301;56.864;60.554;2023-04-01T05:31:19;99057.47;;;25.22;38.92
69187;BME280;56301;56.864;60.554;2023-04-01T05:33:44;99058.31;;;25.23;38.82
69187;BME280;56301;56.864;60.554;2023-04-01T05:36:10;99048.50;;;25.21;39.69
69187;BME280;56301;56.864;60.554;2023-04-01T05:38:33;99046.44;;;25.24;39.19
69187;BME280;56301;56.864;60.554;2023-04-01T05:40:58;99043.56;;;25.25;39.20
69187;BME280;56301;56.864;60.554;2023-04-01T05:43:21;99027.97;;;25.27;38.55
69187;BME280;56301;56.864;60.554;2023-04-01T05:45:45;99026.59;;;25.31;37.99
69187;BME280;56301;56.864;60.554;2023-04-01T05:48:27;99014.53;;;25.34;38.42
69187;BME280;56301;56.864;60.554;2023-04-01T05:50:50;99025.03;;;25.37;37.81
69187;BME280;56301;56.864;60.554;2023-04-01T05:53:12;99020.91;;;25.41;37.89
69187;BME280;56301;56.864;60.554;2023-04-01T05:55:38;99017.22;;;25.42;37.52
69187;BME280;56301;56.864;60.554;2023-04-01T05:58:01;99013.13;;;25.46;37.81
69187;BME280;56301;56.864;60.554;2023-04-01T06:00:24;99015.25;;;25.51;37.66
69187;BME280;56301;56.864;60.554;2023-04-01T06:02:47;98993.41;;;25.52;38.23
69187;BME280;56301;56.864;60.554;2023-04-01T06:05:17;98998.66;;;25.54;38.51
69187;BME280;56301;56.864;60.554;2023-04-01T06:07:40;99000.13;;;25.56;37.89
69187;BME280;56301;56.864;60.554;2023-04-01T06:10:05;99005.38;;;25.58;38.16
69187;BME280;56301;56.864;60.554;2023-04-01T06:12:45;99019.56;;;25.60;38.24
69187;BME280;56301;56.864;60.554;2023-04-01T06:20:26;98980.25;;;25.49;38.18
69187;BME280;56301;56.864;60.554;2023-04-01T06:23:01;99000.25;;;25.63;37.87
69187;BME280;56301;56.864;60.554;2023-04-01T06:35:55;98996.59;;;25.70;37.83
69187;BME280;56301;56.864;60.554;2023-04-01T06:46:15;98949.72;;;25.85;37.80
69187;BME280;56301;56.864;60.554;2023-04-01T06:55:02;98945.72;;;25.96;37.67
69187;BME280;56301;56.864;60.554;2023-04-01T06:58:04;98937.41;;;25.97;37.46
69187;BME280;56301;56.864;60.554;2023-04-01T07:00:32;98951.81;;;25.98;37.46
69187;BME280;56301;56.864;60.554;2023-04-01T07:03:05;98954.97;;;26.01;38.02
69187;BME280;56301;56.864;60.554;2023-04-01T07:05:30;98967.50;;;26.02;36.98
69187;BME280;56301;56.864;60.554;2023-04-01T07:07:54;98946.84;;;26.01;38.04
69187;BME280;56301;56.864;60.554;2023-04-01T07:10:23;98946.84;;;26.01;38.05
69187;BME280;56301;56.864;60.554;2023-04-01T07:18:29;98956.19;;;25.99;37.63
69187;BME280;56301;56.864;60.554;2023-04-01T07:20:53;98953.69;;;25.97;37.76
69187;BME280;56301;56.864;60.554;2023-04-01T07:23:21;98955.34;;;25.98;37.71
69187;BME280;56301;56.864;60.554;2023-04-01T07:26:04;98947.22;;;25.98;38.08
69187;BME280;56301;56.864;60.554;2023-04-01T07:28:29;98945.19;;;26.00;38.34
69187;BME280;56301;56.864;60.554;2023-04-01T07:41:54;98946.56;;;26.11;37.73
69187;BME280;56301;56.864;60.554;2023-04-01T07:46:27;98946.63;;;26.17;38.10
69187;BME280;56301;56.864;60.554;2023-04-01T07:51:23;98938.41;;;26.26;38.05
69187;BME280;56301;56.864;60.554;2023-04-01T07:53:51;98943.63;;;26.27;37.64
69187;BME280;56301;56.864;60.554;2023-04-01T07:56:18;98934.47;;;26.28;37.49
69187;BME280;56301;56.864;60.554;2023-04-01T07:59:03;98934.66;;;26.27;37.32
69187;BME280;56301;56.864;60.554;2023-04-01T08:07:08;98923.81;;;26.27;37.23
69187;BME280;56301;56.864;60.554;2023-04-01T08:17:43;98910.78;;;26.37;38.39
69187;BME280;56301;56.864;60.554;2023-04-01T08:20:29;98903.50;;;26.37;38.04
69187;BME280;56301;56.864;60.554;2023-04-01T08:25:50;98889.56;;;26.40;38.27
69187;BME280;56301;56.864;60.554;2023-04-01T08:28:17;98881.59;;;26.39;37.92
69187;BME280;56301;56.864;60.554;2023-04-01T08:30:43;98868.22;;;26.37;38.87
69187;BME280;56301;56.864;60.554;2023-04-01T08:33:19;98869.28;;;26.36;38.90
69187;BME280;56301;56.864;60.554;2023-04-01T08:38:19;98856.53;;;26.37;38.33
69187;BME280;56301;56.864;60.554;2023-04-01T08:43:16;98868.03;;;26.39;38.19
69187;BME280;56301;56.864;60.554;2023-04-01T08:48:28;98850.31;;;26.43;38.30
69187;BME280;56301;56.864;60.554;2023-04-01T09:25:03;98811.47;;;27.07;38.15
69187;BME280;56301;56.864;60.554;2023-04-01T09:35:25;98831.97;;;27.09;37.36
69187;BME280;56301;56.864;60.554;2023-04-01T09:40:34;98827.00;;;27.13;37.70
69187;BME280;56301;56.864;60.554;2023-04-01T09:45:41;98806.34;;;27.19;36.66
69187;BME280;56301;56.864;60.554;2023-04-01T09:48:19;98807.00;;;27.21;37.32
69187;BME280;56301;56.864;60.554;2023-04-01T09:50:54;98802.19;;;27.23;36.96
69187;BME280;56301;56.864;60.554;2023-04-01T10:01:10;98781.13;;;27.25;38.58
69187;BME280;56301;56.864;60.554;2023-04-01T10:06:28;98804.50;;;27.26;39.34
69187;BME280;56301;56.864;60.554;2023-04-01T10:14:16;98776.56;;;27.32;38.82
69187;BME280;56301;56.864;60.554;2023-04-01T10:27:15;98752.94;;;27.32;39.71
69187;BME280;56301;56.864;60.554;2023-04-01T10:35:26;98744.44;;;26.51;29.18
69187;BME280;56301;56.864;60.554;2023-04-01T10:38:06;98748.66;;;26.60;28.90
69187;BME280;56301;56.864;60.554;2023-04-01T10:47:23;98770.25;;;26.26;25.51
69187;BME280;56301;56.864;60.554;2023-04-01T10:51:52;98770.03;;;26.27;26.98
69187;BME280;56301;56.864;60.554;2023-04-01T10:54:45;98764.38;;;26.22;28.68
69187;BME280;56301;56.864;60.554;2023-04-01T11:17:08;98755.78;;;26.19;31.65
69187;BME280;56301;56.864;60.554;2023-04-01T11:22:09;98758.88;;;26.15;32.46
69187;BME280;56301;56.864;60.554;2023-04-01T11:30:04;98755.72;;;26.12;32.78
69187;BME280;56301;56.864;60.554;2023-04-01T11:43:21;98730.41;;;26.05;31.31
69187;BME280;56301;56.864;60.554;2023-04-01T11:48:50;98723.94;;;26.06;32.29
69187;BME280;56301;56.864;60.554;2023-04-01T11:53:41;98721.44;;;26.04;31.58
69187;BME280;56301;56.864;60.554;2023-04-01T12:01:08;98692.00;;;26.01;30.62
69187;BME280;56301;56.864;60.554;2023-04-01T12:06:08;98709.94;;;26.02;30.33
69187;BME280;56301;56.864;60.554;2023-04-01T12:08:45;98694.69;;;26.01;30.54
69187;BME280;56301;56.864;60.554;2023-04-01T12:16:19;98720.69;;;25.96;31.02
69187;BME280;56301;56.864;60.554;2023-04-01T12:18:48;98705.69;;;25.93;30.77
69187;BME280;56301;56.864;60.554;2023-04-01T12:29:37;98680.63;;;25.91;29.98
69187;BME280;56301;56.864;60.554;2023-04-01T12:34:23;98700.78;;;25.82;29.48
69187;BME280;56301;56.864;60.554;2023-04-01T12:36:56;98708.13;;;25.73;28.05
69187;BME280;56301;56.864;60.554;2023-04-01T12:39:31;98694.13;;;25.69;29.16
69187;BME280;56301;56.864;60.554;2023-04-01T12:41:59;98703.09;;;25.70;28.47
69187;BME280;56301;56.864;60.554;2023-04-01T12:49:55;98697.59;;;25.63;28.78
69187;BME280;56301;56.864;60.554;2023-04-01T12:52:22;98711.13;;;25.63;28.53
69187;BME280;56301;56.864;60.554;2023-04-01T13:05:15;98716.03;;;25.53;28.21
69187;BME280;56301;56.864;60.554;2023-04-01T13:10:26;98708.91;;;25.52;28.46
69187;BME280;56301;56.864;60.554;2023-04-01T13:18:03;98709.50;;;25.48;28.44
69187;BME280;56301;56.864;60.554;2023-04-01T13:20:45;98700.53;;;25.47;28.25
69187;BME280;56301;56.864;60.554;2023-04-01T13:23:20;98692.16;;;25.42;27.82
69187;BME280;56301;56.864;60.554;2023-04-01T13:25:47;98687.13;;;25.39;28.84
69187;BME280;56301;56.864;60.554;2023-04-01T13:28:20;98684.66;;;25.44;28.59
69187;BME280;56301;56.864;60.554;2023-04-01T13:40:49;98683.75;;;25.37;27.37
69187;BME280;56301;56.864;60.554;2023-04-01T13:43:19;98681.41;;;25.34;27.67
69187;BME280;56301;56.864;60.554;2023-04-01T13:45:51;98690.38;;;25.34;27.85
69187;BME280;56301;56.864;60.554;2023-04-01T13:50:52;98705.53;;;25.29;28.48
69187;BME280;56301;56.864;60.554;2023-04-01T13:53:25;98684.22;;;25.26;27.14
69187;BME280;56301;56.864;60.554;2023-04-01T13:58:28;98706.25;;;25.23;27.86
69187;BME280;56301;56.864;60.554;2023-04-01T14:00:54;98698.16;;;25.23;27.96
69187;BME280;56301;56.864;60.554;2023-04-01T14:03:30;98706.09;;;25.24;28.97
69187;BME280;56301;56.864;60.554;2023-04-01T14:06:11;98707.94;;;25.24;28.05
69187;BME280;56301;56.864;60.554;2023-04-01T14:11:19;98705.63;;;25.20;28.21
69187;BME280;56301;56.864;60.554;2023-04-01T14:13:50;98697.88;;;25.17;28.00
69187;BME280;56301;56.864;60.554;2023-04-01T14:47:26;98750.03;;;24.96;27.30
69187;BME280;56301;56.864;60.554;2023-04-01T14:49:51;98741.06;;;24.96;27.55
69187;BME280;56301;56.864;60.554;2023-04-01T14:54:44;98736.84;;;24.93;27.44
69187;BME280;56301;56.864;60.554;2023-04-01T14:57:13;98743.78;;;24.96;27.44
69187;BME280;56301;56.864;60.554;2023-04-01T14:59:39;98740.22;;;24.95;27.71
69187;BME280;56301;56.864;60.554;2023-04-01T15:12:27;98758.50;;;24.93;29.31
69187;BME280;56301;56.864;60.554;2023-04-01T15:14:51;98759.34;;;24.94;29.02
69187;BME280;56301;56.864;60.554;2023-04-01T15:22:24;98781.00;;;24.94;28.80
69187;BME280;56301;56.864;60.554;2023-04-01T15:27:43;98784.75;;;24.93;29.65
69187;BME280;56301;56.864;60.554;2023-04-01T15:35:19;98796.59;;;24.92;29.60
69187;BME280;56301;56.864;60.554;2023-04-01T15:40:37;98804.72;;;24.92;30.53
69187;BME280;56301;56.864;60.554;2023-04-01T15:45:42;98819.72;;;24.94;30.86
69187;BME280;56301;56.864;60.554;2023-04-01T15:50:52;98800.16;;;24.92;30.73
69187;BME280;56301;56.864;60.554;2023-04-01T15:53:24;98816.38;;;24.92;31.04
69187;BME280;56301;56.864;60.554;2023-04-01T16:06:31;98829.94;;;25.07;33.48
69187;BME280;56301;56.864;60.554;2023-04-01T16:09:09;98840.78;;;25.07;32.99
69187;BME280;56301;56.864;60.554;2023-04-01T16:19:26;98829.66;;;25.02;34.88
69187;BME280;56301;56.864;60.554;2023-04-01T16:27:16;98828.16;;;25.00;34.94
69187;BME280;56301;56.864;60.554;2023-04-01T16:29:43;98835.44;;;24.99;35.36
69187;BME280;56301;56.864;60.554;2023-04-01T16:34:38;98839.00;;;25.00;35.10
69187;BME280;56301;56.864;60.554;2023-04-01T16:37:14;98832.75;;;24.99;35.39
69187;BME280;56301;56.864;60.554;2023-04-01T16:45:08;98851.69;;;24.99;34.87
69187;BME280;56301;56.864;60.554;2023-04-01T16:47:48;98866.06;;;25.00;34.11
69187;BME280;56301;56.864;60.554;2023-04-01T16:52:55;98882.09;;;25.01;35.29
69187;BME280;56301;56.864;60.554;2023-04-01T16:55:20;98891.94;;;25.02;35.27
69187;BME280;56301;56.864;60.554;2023-04-01T16:57:46;98889.38;;;25.01;34.36
69187;BME280;56301;56.864;60.554;2023-04-01T17:02:35;98896.69;;;25.00;35.17
69187;BME280;56301;56.864;60.554;2023-04-01T17:05:04;98893.97;;;25.00;35.17
69187;BME280;56301;56.864;60.554;2023-04-01T17:07:31;98893.97;;;25.00;35.34
69187;BME280;56301;56.864;60.554;2023-04-01T17:14:58;98899.38;;;25.00;35.47
69187;BME280;56301;56.864;60.554;2023-04-01T17:17:27;98896.69;;;25.00;35.03
69187;BME280;56301;56.864;60.554;2023-04-01T17:20:13;98889.38;;;25.01;35.49
69187;BME280;56301;56.864;60.554;2023-04-01T17:22:51;98895.63;;;25.01;34.83
69187;BME280;56301;56.864;60.554;2023-04-01T17:28:33;98909.00;;;25.03;35.90
69187;BME280;56301;56.864;60.554;2023-04-01T17:48:17;98931.03;;;25.00;33.36
69187;BME280;56301;56.864;60.554;2023-04-01T18:03:36;98948.59;;;25.04;34.19
69187;BME280;56301;56.864;60.554;2023-04-01T18:06:04;98956.72;;;25.04;34.63
69187;BME280;56301;56.864;60.554;2023-04-01T18:16:37;98962.81;;;25.06;34.68
69187;BME280;56301;56.864;60.554;2023-04-01T18:26:33;98977.81;;;25.08;35.19
69187;BME280;56301;56.864;60.554;2023-04-01T18:28:57;98980.53;;;25.08;35.05
69187;BME280;56301;56.864;60.554;2023-04-01T18:31:22;98980.53;;;25.08;34.76
69187;BME280;56301;56.864;60.554;2023-04-01T18:38:51;98984.94;;;25.09;35.48
69187;BME280;56301;56.864;60.554;2023-04-01T18:41:32;98986.66;;;25.10;35.08
69187;BME280;56301;56.864;60.554;2023-04-01T18:46:39;98983.94;;;25.10;35.10
69187;BME280;56301;56.864;60.554;2023-04-01T18:49:08;98989.34;;;25.10;35.36
69187;BME280;56301;56.864;60.554;2023-04-01T18:54:02;99000.00;;;25.12;35.19
69187;BME280;56301;56.864;60.554;2023-04-01T18:56:35;98996.44;;;25.11;35.43
69187;BME280;56301;56.864;60.554;2023-04-01T18:59:10;99005.25;;;25.13;35.03
69187;BME280;56301;56.864;60.554;2023-04-01T19:01:59;99013.38;;;25.13;35.47
69187;BME280;56301;56.864;60.554;2023-04-01T19:06:43;99005.41;;;25.12;35.68
69187;BME280;56301;56.864;60.554;2023-04-01T19:11:43;99008.94;;;25.12;35.82
69187;BME280;56301;56.864;60.554;2023-04-01T19:24:01;99019.78;;;25.12;35.77
69187;BME280;56301;56.864;60.554;2023-04-01T19:26:28;99019.78;;;25.12;36.07
69187;BME280;56301;56.864;60.554;2023-04-01T19:28:54;99029.63;;;25.13;36.09
69187;BME280;56301;56.864;60.554;2023-04-01T19:41:31;99019.78;;;25.12;36.51
69187;BME280;56301;56.864;60.554;2023-04-01T19:44:06;99027.06;;;25.12;36.73
69187;BME280;56301;56.864;60.554;2023-04-01T19:46:36;99026.22;;;25.11;36.89
69187;BME280;56301;56.864;60.554;2023-04-01T19:56:53;99035.03;;;25.13;36.86
69187;BME280;56301;56.864;60.554;2023-04-01T20:01:52;99034.00;;;25.14;37.20
69187;BME280;56301;56.864;60.554;2023-04-01T20:06:56;99047.53;;;25.14;37.27
69187;BME280;56301;56.864;60.554;2023-04-01T20:09:28;99042.13;;;25.14;37.30
69187;BME280;56301;56.864;60.554;2023-04-01T20:12:09;99054.81;;;25.14;37.16
69187;BME280;56301;56.864;60.554;2023-04-01T20:14:40;99056.69;;;25.13;36.95
69187;BME280;56301;56.864;60.554;2023-04-01T20:19:51;99056.69;;;25.13;37.00
69187;BME280;56301;56.864;60.554;2023-04-01T20:24:45;99068.34;;;25.14;37.15
69187;BME280;56301;56.864;60.554;2023-04-01T20:27:19;99074.63;;;25.14;36.42
69187;BME280;56301;56.864;60.554;2023-04-01T20:29:56;99073.59;;;25.15;36.89
69187;BME280;56301;56.864;60.554;2023-04-01T20:37:28;99078.34;;;25.13;37.55
69187;BME280;56301;56.864;60.554;2023-04-01T20:45:17;99084.41;;;25.15;37.74
69187;BME280;56301;56.864;60.554;2023-04-01T20:47:56;99090.84;;;25.14;37.21
69187;BME280;56301;56.864;60.554;2023-04-01T20:50:29;99095.25;;;25.15;36.91
69187;BME280;56301;56.864;60.554;2023-04-01T20:55:55;99088.84;;;25.16;37.14
69187;BME280;56301;56.864;60.554;2023-04-01T21:07:52;99103.03;;;25.18;37.38
69187;BME280;56301;56.864;60.554;2023-04-01T21:17:46;99125.66;;;25.26;37.12
69187;BME280;56301;56.864;60.554;2023-04-01T21:35:42;99135.31;;;25.28;38.62
69187;BME280;56301;56.864;60.554;2023-04-01T21:41:02;99135.91;;;25.38;37.80
69187;BME280;56301;56.864;60.554;2023-04-01T21:43:35;99133.69;;;25.42;37.50
69187;BME280;56301;56.864;60.554;2023-04-01T21:48:31;99138.09;;;25.43;37.94
69187;BME280;56301;56.864;60.554;2023-04-01T21:53:55;99146.84;;;25.45;37.70
69187;BME280;56301;56.864;60.554;2023-04-01T22:06:52;99148.03;;;25.51;37.73
69187;BME280;56301;56.864;60.554;2023-04-01T22:09:32;99143.44;;;25.51;38.27
69187;BME280;56301;56.864;60.554;2023-04-01T22:22:20;99160.38;;;25.53;38.46